Alpha, Kentucky
Current Conditions -  °F | °C
As of 9:56 PM on Wednesday 22 Oct 2014 (Local Time) from KEKQ Reporting Station
Overcast Overcast  
Wind Chill: 48°   Ceiling: 3100
Heat Index: 48°   Visibility: 10mi
Dew Point: 43°   Wind: 0mph
Humidity: 83%   Direction: NA
Pressure: 30.26"   Gusts: NA
Location:  36.77°N, 85.01°W
Report Text: KEKQ 230256Z AUTO 00000KT 10SM OVC031 09/06 A3026 RMK AO2 50000 T00880061 SLP255
Loading
Personal Weather Stations






























Interactive Weather Map
Tropical Storm Tracking
New forecast layout! Learn more

10-Day Weather Forecast

Advertisements
Track Severe Weather on mobile